sensor_id;sensor_type;location;lat;lon;timestamp;P1;durP1;ratioP1;P2;durP2;ratioP2
6374;SDS011;35400;45.472;-122.822;2022-08-19T00:01:38;6.80;;;4.03;;
6374;SDS011;35400;45.472;-122.822;2022-08-19T00:04:07;5.38;;;3.58;;
6374;SDS011;35400;45.472;-122.822;2022-08-19T00:06:35;4.05;;;3.58;;
6374;SDS011;35400;45.472;-122.822;2022-08-19T00:09:03;4.15;;;3.75;;
6374;SDS011;35400;45.472;-122.822;2022-08-19T00:11:31;4.03;;;3.60;;
6374;SDS011;35400;45.472;-122.822;2022-08-19T00:13:59;3.97;;;3.65;;
6374;SDS011;35400;45.472;-122.822;2022-08-19T00:16:26;4.18;;;3.78;;
6374;SDS011;35400;45.472;-122.822;2022-08-19T00:18:53;4.10;;;3.67;;
6374;SDS011;35400;45.472;-122.822;2022-08-19T00:21:24;5.93;;;3.90;;
6374;SDS011;35400;45.472;-122.822;2022-08-19T00:23:54;4.90;;;3.78;;
6374;SDS011;35400;45.472;-122.822;2022-08-19T00:26:25;7.03;;;4.22;;
6374;SDS011;35400;45.472;-122.822;2022-08-19T00:28:53;5.53;;;4.38;;
6374;SDS011;35400;45.472;-122.822;2022-08-19T00:31:20;4.68;;;3.58;;
6374;SDS011;35400;45.472;-122.822;2022-08-19T00:33:47;4.50;;;3.58;;
6374;SDS011;35400;45.472;-122.822;2022-08-19T00:36:17;4.15;;;3.47;;
6374;SDS011;35400;45.472;-122.822;2022-08-19T00:38:43;4.18;;;3.75;;
6374;SDS011;35400;45.472;-122.822;2022-08-19T00:41:12;6.68;;;4.45;;
6374;SDS011;35400;45.472;-122.822;2022-08-19T00:43:40;5.85;;;4.03;;
6374;SDS011;35400;45.472;-122.822;2022-08-19T00:46:06;4.90;;;4.38;;
6374;SDS011;35400;45.472;-122.822;2022-08-19T00:48:33;6.25;;;3.90;;
6374;SDS011;35400;45.472;-122.822;2022-08-19T00:51:00;6.35;;;4.05;;
6374;SDS011;35400;45.472;-122.822;2022-08-19T00:53:29;4.47;;;3.85;;
6374;SDS011;35400;45.472;-122.822;2022-08-19T00:55:59;4.88;;;4.20;;
6374;SDS011;35400;45.472;-122.822;2022-08-19T00:58:29;4.95;;;4.45;;
6374;SDS011;35400;45.472;-122.822;2022-08-19T01:00:57;8.25;;;4.28;;
6374;SDS011;35400;45.472;-122.822;2022-08-19T01:03:25;3.97;;;3.58;;
6374;SDS011;35400;45.472;-122.822;2022-08-19T01:05:51;4.20;;;3.80;;
6374;SDS011;35400;45.472;-122.822;2022-08-19T01:08:21;4.93;;;4.28;;
6374;SDS011;35400;45.472;-122.822;2022-08-19T01:10:52;4.13;;;3.65;;
6374;SDS011;35400;45.472;-122.822;2022-08-19T01:13:21;3.28;;;2.95;;
6374;SDS011;35400;45.472;-122.822;2022-08-19T01:15:51;3.38;;;3.08;;
6374;SDS011;35400;45.472;-122.822;2022-08-19T01:18:30;4.38;;;3.10;;
6374;SDS011;35400;45.472;-122.822;2022-08-19T01:21:02;6.00;;;5.50;;
6374;SDS011;35400;45.472;-122.822;2022-08-19T01:23:34;10.57;;;5.88;;
6374;SDS011;35400;45.472;-122.822;2022-08-19T01:26:12;5.38;;;4.60;;
6374;SDS011;35400;45.472;-122.822;2022-08-19T01:28:40;4.93;;;4.22;;
6374;SDS011;35400;45.472;-122.822;2022-08-19T01:31:12;5.05;;;4.28;;
6374;SDS011;35400;45.472;-122.822;2022-08-19T01:33:41;7.78;;;5.63;;
6374;SDS011;35400;45.472;-122.822;2022-08-19T01:36:11;8.60;;;4.40;;
6374;SDS011;35400;45.472;-122.822;2022-08-19T01:38:40;6.90;;;5.00;;
6374;SDS011;35400;45.472;-122.822;2022-08-19T01:41:09;6.25;;;4.05;;
6374;SDS011;35400;45.472;-122.822;2022-08-19T01:43:36;6.90;;;4.55;;
6374;SDS011;35400;45.472;-122.822;2022-08-19T01:46:03;7.68;;;4.60;;
6374;SDS011;35400;45.472;-122.822;2022-08-19T01:48:34;6.43;;;4.55;;
6374;SDS011;35400;45.472;-122.822;2022-08-19T01:51:03;5.47;;;4.10;;
6374;SDS011;35400;45.472;-122.822;2022-08-19T01:53:30;4.82;;;4.30;;
6374;SDS011;35400;45.472;-122.822;2022-08-19T01:55:57;5.93;;;4.30;;
6374;SDS011;35400;45.472;-122.822;2022-08-19T01:58:24;5.88;;;4.20;;
6374;SDS011;35400;45.472;-122.822;2022-08-19T02:00:55;4.53;;;4.05;;
6374;SDS011;35400;45.472;-122.822;2022-08-19T02:03:23;5.50;;;4.13;;
6374;SDS011;35400;45.472;-122.822;2022-08-19T02:05:53;6.32;;;4.53;;
6374;SDS011;35400;45.472;-122.822;2022-08-19T02:08:21;5.68;;;4.60;;
6374;SDS011;35400;45.472;-122.822;2022-08-19T02:10:47;9.32;;;4.57;;
6374;SDS011;35400;45.472;-122.822;2022-08-19T02:13:16;7.63;;;4.43;;
6374;SDS011;35400;45.472;-122.822;2022-08-19T02:15:42;4.70;;;4.10;;
6374;SDS011;35400;45.472;-122.822;2022-08-19T02:18:09;4.68;;;4.13;;
6374;SDS011;35400;45.472;-122.822;2022-08-19T02:20:36;4.70;;;4.30;;
6374;SDS011;35400;45.472;-122.822;2022-08-19T02:23:04;5.60;;;4.90;;
6374;SDS011;35400;45.472;-122.822;2022-08-19T02:25:31;4.43;;;3.80;;
6374;SDS011;35400;45.472;-122.822;2022-08-19T02:27:58;6.80;;;4.35;;
6374;SDS011;35400;45.472;-122.822;2022-08-19T02:30:24;7.18;;;4.65;;
6374;SDS011;35400;45.472;-122.822;2022-08-19T02:32:51;4.65;;;3.80;;
6374;SDS011;35400;45.472;-122.822;2022-08-19T02:35:18;5.80;;;4.60;;
6374;SDS011;35400;45.472;-122.822;2022-08-19T02:37:45;4.78;;;4.38;;
6374;SDS011;35400;45.472;-122.822;2022-08-19T02:40:30;9.13;;;4.97;;
6374;SDS011;35400;45.472;-122.822;2022-08-19T02:43:01;7.80;;;5.65;;
6374;SDS011;35400;45.472;-122.822;2022-08-19T02:45:34;5.20;;;4.70;;
6374;SDS011;35400;45.472;-122.822;2022-08-19T02:48:02;4.20;;;3.90;;
6374;SDS011;35400;45.472;-122.822;2022-08-19T02:50:30;5.65;;;4.80;;
6374;SDS011;35400;45.472;-122.822;2022-08-19T02:52:57;5.07;;;4.68;;
6374;SDS011;35400;45.472;-122.822;2022-08-19T02:55:24;5.40;;;4.20;;
6374;SDS011;35400;45.472;-122.822;2022-08-19T02:57:50;5.32;;;4.80;;
6374;SDS011;35400;45.472;-122.822;2022-08-19T03:00:16;4.90;;;4.40;;
6374;SDS011;35400;45.472;-122.822;2022-08-19T03:02:43;5.60;;;4.68;;
6374;SDS011;35400;45.472;-122.822;2022-08-19T03:05:12;4.97;;;4.47;;
6374;SDS011;35400;45.472;-122.822;2022-08-19T03:07:38;4.90;;;4.38;;
6374;SDS011;35400;45.472;-122.822;2022-08-19T03:10:05;9.05;;;5.32;;
6374;SDS011;35400;45.472;-122.822;2022-08-19T03:12:35;5.30;;;4.60;;
6374;SDS011;35400;45.472;-122.822;2022-08-19T03:15:03;5.07;;;4.57;;
6374;SDS011;35400;45.472;-122.822;2022-08-19T03:17:32;5.32;;;4.78;;
6374;SDS011;35400;45.472;-122.822;2022-08-19T03:20:00;5.22;;;4.72;;
6374;SDS011;35400;45.472;-122.822;2022-08-19T03:22:26;5.10;;;4.68;;
6374;SDS011;35400;45.472;-122.822;2022-08-19T03:24:55;5.07;;;4.15;;
6374;SDS011;35400;45.472;-122.822;2022-08-19T03:27:21;6.53;;;4.57;;
6374;SDS011;35400;45.472;-122.822;2022-08-19T03:29:48;5.90;;;4.70;;
6374;SDS011;35400;45.472;-122.822;2022-08-19T03:32:14;6.90;;;4.97;;
6374;SDS011;35400;45.472;-122.822;2022-08-19T03:34:41;7.32;;;5.15;;
6374;SDS011;35400;45.472;-122.822;2022-08-19T03:37:10;7.32;;;5.15;;
6374;SDS011;35400;45.472;-122.822;2022-08-19T03:39:40;8.00;;;5.15;;
6374;SDS011;35400;45.472;-122.822;2022-08-19T03:42:07;5.95;;;4.57;;
6374;SDS011;35400;45.472;-122.822;2022-08-19T03:44:34;5.13;;;4.47;;
6374;SDS011;35400;45.472;-122.822;2022-08-19T03:47:03;4.80;;;4.32;;
6374;SDS011;35400;45.472;-122.822;2022-08-19T03:49:31;4.82;;;4.35;;
6374;SDS011;35400;45.472;-122.822;2022-08-19T03:52:00;5.55;;;4.63;;
6374;SDS011;35400;45.472;-122.822;2022-08-19T03:54:27;6.57;;;4.72;;
6374;SDS011;35400;45.472;-122.822;2022-08-19T03:56:54;5.25;;;4.40;;
6374;SDS011;35400;45.472;-122.822;2022-08-19T03:59:29;5.15;;;4.63;;
6374;SDS011;35400;45.472;-122.822;2022-08-19T04:02:00;5.95;;;4.57;;
6374;SDS011;35400;45.472;-122.822;2022-08-19T04:04:33;4.47;;;4.07;;
6374;SDS011;35400;45.472;-122.822;2022-08-19T04:07:01;6.20;;;4.90;;
6374;SDS011;35400;45.472;-122.822;2022-08-19T04:09:28;5.22;;;4.75;;
6374;SDS011;35400;45.472;-122.822;2022-08-19T04:11:55;5.20;;;4.70;;
6374;SDS011;35400;45.472;-122.822;2022-08-19T04:14:24;5.10;;;4.60;;
6374;SDS011;35400;45.472;-122.822;2022-08-19T04:16:53;6.18;;;4.72;;
6374;SDS011;35400;45.472;-122.822;2022-08-19T04:19:19;5.05;;;4.65;;
6374;SDS011;35400;45.472;-122.822;2022-08-19T04:21:48;5.43;;;4.90;;
6374;SDS011;35400;45.472;-122.822;2022-08-19T04:24:17;5.88;;;5.28;;
6374;SDS011;35400;45.472;-122.822;2022-08-19T04:26:44;5.47;;;4.90;;
6374;SDS011;35400;45.472;-122.822;2022-08-19T04:29:12;5.63;;;5.13;;
6374;SDS011;35400;45.472;-122.822;2022-08-19T04:31:41;4.55;;;4.25;;
6374;SDS011;35400;45.472;-122.822;2022-08-19T04:34:10;5.22;;;4.78;;
6374;SDS011;35400;45.472;-122.822;2022-08-19T04:36:37;4.00;;;3.60;;
6374;SDS011;35400;45.472;-122.822;2022-08-19T04:39:07;4.68;;;4.25;;
6374;SDS011;35400;45.472;-122.822;2022-08-19T04:41:37;5.57;;;5.07;;
6374;SDS011;35400;45.472;-122.822;2022-08-19T04:44:21;5.03;;;4.53;;
6374;SDS011;35400;45.472;-122.822;2022-08-19T04:46:49;7.32;;;5.13;;
6374;SDS011;35400;45.472;-122.822;2022-08-19T04:49:16;5.05;;;4.55;;
6374;SDS011;35400;45.472;-122.822;2022-08-19T04:51:44;5.32;;;4.68;;
6374;SDS011;35400;45.472;-122.822;2022-08-19T04:54:16;5.47;;;4.97;;
6374;SDS011;35400;45.472;-122.822;2022-08-19T04:56:48;5.18;;;4.68;;
6374;SDS011;35400;45.472;-122.822;2022-08-19T04:59:16;7.65;;;4.97;;
6374;SDS011;35400;45.472;-122.822;2022-08-19T05:01:43;5.45;;;4.63;;
6374;SDS011;35400;45.472;-122.822;2022-08-19T05:04:15;5.10;;;4.60;;
6374;SDS011;35400;45.472;-122.822;2022-08-19T05:06:48;4.97;;;4.25;;
6374;SDS011;35400;45.472;-122.822;2022-08-19T05:09:17;5.78;;;5.05;;
6374;SDS011;35400;45.472;-122.822;2022-08-19T05:11:44;5.85;;;5.35;;
6374;SDS011;35400;45.472;-122.822;2022-08-19T05:14:11;6.85;;;4.65;;
6374;SDS011;35400;45.472;-122.822;2022-08-19T05:16:38;5.05;;;4.40;;
6374;SDS011;35400;45.472;-122.822;2022-08-19T05:19:05;6.45;;;5.07;;
6374;SDS011;35400;45.472;-122.822;2022-08-19T05:21:50;5.20;;;4.78;;
6374;SDS011;35400;45.472;-122.822;2022-08-19T05:24:35;5.03;;;4.57;;
6374;SDS011;35400;45.472;-122.822;2022-08-19T05:27:02;5.22;;;4.72;;
6374;SDS011;35400;45.472;-122.822;2022-08-19T05:29:31;4.88;;;4.47;;
6374;SDS011;35400;45.472;-122.822;2022-08-19T05:32:00;5.18;;;4.70;;
6374;SDS011;35400;45.472;-122.822;2022-08-19T05:34:30;5.63;;;5.00;;
6374;SDS011;35400;45.472;-122.822;2022-08-19T05:36:58;8.05;;;5.22;;
6374;SDS011;35400;45.472;-122.822;2022-08-19T05:39:27;5.75;;;5.25;;
6374;SDS011;35400;45.472;-122.822;2022-08-19T05:41:56;4.70;;;4.30;;
6374;SDS011;35400;45.472;-122.822;2022-08-19T05:44:25;5.55;;;4.47;;
6374;SDS011;35400;45.472;-122.822;2022-08-19T05:46:56;5.35;;;4.95;;
6374;SDS011;35400;45.472;-122.822;2022-08-19T05:49:24;7.03;;;5.40;;
6374;SDS011;35400;45.472;-122.822;2022-08-19T05:51:52;5.35;;;4.90;;
6374;SDS011;35400;45.472;-122.822;2022-08-19T05:54:20;5.43;;;4.93;;
6374;SDS011;35400;45.472;-122.822;2022-08-19T05:56:51;5.43;;;4.55;;
6374;SDS011;35400;45.472;-122.822;2022-08-19T05:59:19;5.22;;;4.72;;
6374;SDS011;35400;45.472;-122.822;2022-08-19T06:01:47;5.97;;;5.07;;
6374;SDS011;35400;45.472;-122.822;2022-08-19T06:04:19;5.97;;;4.95;;
6374;SDS011;35400;45.472;-122.822;2022-08-19T06:06:47;5.35;;;4.65;;
6374;SDS011;35400;45.472;-122.822;2022-08-19T06:09:16;5.55;;;5.05;;
6374;SDS011;35400;45.472;-122.822;2022-08-19T06:11:48;5.60;;;4.85;;
6374;SDS011;35400;45.472;-122.822;2022-08-19T06:14:20;5.50;;;4.85;;
6374;SDS011;35400;45.472;-122.822;2022-08-19T06:16:48;5.68;;;5.07;;
6374;SDS011;35400;45.472;-122.822;2022-08-19T06:19:18;5.45;;;4.95;;
6374;SDS011;35400;45.472;-122.822;2022-08-19T06:21:48;5.88;;;5.28;;
6374;SDS011;35400;45.472;-122.822;2022-08-19T06:24:17;5.35;;;4.85;;
6374;SDS011;35400;45.472;-122.822;2022-08-19T06:26:49;5.43;;;4.85;;
6374;SDS011;35400;45.472;-122.822;2022-08-19T06:29:18;5.53;;;4.97;;
6374;SDS011;35400;45.472;-122.822;2022-08-19T06:31:48;5.43;;;4.93;;
6374;SDS011;35400;45.472;-122.822;2022-08-19T06:34:15;5.15;;;4.63;;
6374;SDS011;35400;45.472;-122.822;2022-08-19T06:36:47;5.60;;;4.47;;
6374;SDS011;35400;45.472;-122.822;2022-08-19T06:39:16;6.00;;;5.50;;
6374;SDS011;35400;45.472;-122.822;2022-08-19T06:41:46;5.32;;;4.93;;
6374;SDS011;35400;45.472;-122.822;2022-08-19T06:44:14;5.57;;;5.00;;
6374;SDS011;35400;45.472;-122.822;2022-08-19T06:46:40;7.13;;;4.85;;
6374;SDS011;35400;45.472;-122.822;2022-08-19T06:49:08;5.25;;;4.78;;
6374;SDS011;35400;45.472;-122.822;2022-08-19T06:51:38;5.82;;;4.72;;
6374;SDS011;35400;45.472;-122.822;2022-08-19T06:54:09;5.70;;;5.20;;
6374;SDS011;35400;45.472;-122.822;2022-08-19T06:56:36;5.93;;;4.75;;
6374;SDS011;35400;45.472;-122.822;2022-08-19T06:59:04;5.45;;;4.95;;
6374;SDS011;35400;45.472;-122.822;2022-08-19T07:01:39;7.05;;;5.65;;
6374;SDS011;35400;45.472;-122.822;2022-08-19T07:04:12;5.85;;;5.25;;
6374;SDS011;35400;45.472;-122.822;2022-08-19T07:06:40;5.35;;;4.63;;
6374;SDS011;35400;45.472;-122.822;2022-08-19T07:09:08;6.82;;;5.88;;
6374;SDS011;35400;45.472;-122.822;2022-08-19T07:11:36;7.88;;;5.20;;
6374;SDS011;35400;45.472;-122.822;2022-08-19T07:14:03;5.95;;;5.13;;
6374;SDS011;35400;45.472;-122.822;2022-08-19T07:16:30;6.78;;;4.85;;
6374;SDS011;35400;45.472;-122.822;2022-08-19T07:18:57;5.63;;;5.07;;
6374;SDS011;35400;45.472;-122.822;2022-08-19T07:21:25;5.72;;;4.75;;
6374;SDS011;35400;45.472;-122.822;2022-08-19T07:23:56;7.25;;;5.22;;
6374;SDS011;35400;45.472;-122.822;2022-08-19T07:26:27;5.65;;;5.15;;
6374;SDS011;35400;45.472;-122.822;2022-08-19T07:28:57;5.60;;;4.88;;
6374;SDS011;35400;45.472;-122.822;2022-08-19T07:31:25;6.40;;;5.20;;
6374;SDS011;35400;45.472;-122.822;2022-08-19T07:33:53;10.93;;;5.57;;
6374;SDS011;35400;45.472;-122.822;2022-08-19T07:36:23;6.50;;;4.90;;
6374;SDS011;35400;45.472;-122.822;2022-08-19T07:38:56;6.82;;;5.60;;
6374;SDS011;35400;45.472;-122.822;2022-08-19T07:41:24;5.50;;;5.00;;
6374;SDS011;35400;45.472;-122.822;2022-08-19T07:43:51;5.75;;;5.07;;
6374;SDS011;35400;45.472;-122.822;2022-08-19T07:46:18;6.15;;;5.28;;
6374;SDS011;35400;45.472;-122.822;2022-08-19T07:48:46;7.28;;;4.95;;
6374;SDS011;35400;45.472;-122.822;2022-08-19T07:51:16;8.13;;;5.10;;
6374;SDS011;35400;45.472;-122.822;2022-08-19T07:53:45;6.57;;;5.75;;
6374;SDS011;35400;45.472;-122.822;2022-08-19T07:56:13;8.35;;;5.57;;
6374;SDS011;35400;45.472;-122.822;2022-08-19T07:58:41;5.72;;;4.90;;
6374;SDS011;35400;45.472;-122.822;2022-08-19T08:01:11;5.65;;;5.15;;
6374;SDS011;35400;45.472;-122.822;2022-08-19T08:03:40;5.47;;;5.00;;
6374;SDS011;35400;45.472;-122.822;2022-08-19T08:06:25;8.88;;;5.55;;
6374;SDS011;35400;45.472;-122.822;2022-08-19T08:09:11;7.85;;;4.78;;
6374;SDS011;35400;45.472;-122.822;2022-08-19T08:14:22;5.95;;;4.63;;
6374;SDS011;35400;45.472;-122.822;2022-08-19T08:16:52;8.75;;;5.60;;
6374;SDS011;35400;45.472;-122.822;2022-08-19T08:19:19;9.57;;;5.47;;
6374;SDS011;35400;45.472;-122.822;2022-08-19T08:21:47;6.43;;;5.00;;
6374;SDS011;35400;45.472;-122.822;2022-08-19T08:24:15;6.93;;;5.15;;
6374;SDS011;35400;45.472;-122.822;2022-08-19T08:26:42;7.25;;;5.30;;
6374;SDS011;35400;45.472;-122.822;2022-08-19T08:29:12;6.03;;;5.30;;
6374;SDS011;35400;45.472;-122.822;2022-08-19T08:31:40;5.93;;;5.00;;
6374;SDS011;35400;45.472;-122.822;2022-08-19T08:34:09;6.75;;;5.10;;
6374;SDS011;35400;45.472;-122.822;2022-08-19T08:36:37;5.50;;;4.32;;
6374;SDS011;35400;45.472;-122.822;2022-08-19T08:39:11;5.15;;;4.03;;
6374;SDS011;35400;45.472;-122.822;2022-08-19T08:44:43;5.32;;;4.40;;
6374;SDS011;35400;45.472;-122.822;2022-08-19T08:47:22;4.80;;;4.40;;
6374;SDS011;35400;45.472;-122.822;2022-08-19T08:49:55;5.28;;;3.55;;
6374;SDS011;35400;45.472;-122.822;2022-08-19T08:52:45;4.50;;;3.40;;
6374;SDS011;35400;45.472;-122.822;2022-08-19T08:55:15;4.43;;;3.92;;
6374;SDS011;35400;45.472;-122.822;2022-08-19T09:00:19;3.67;;;3.38;;
6374;SDS011;35400;45.472;-122.822;2022-08-19T09:02:54;4.47;;;3.60;;
6374;SDS011;35400;45.472;-122.822;2022-08-19T09:05:23;4.68;;;3.20;;
6374;SDS011;35400;45.472;-122.822;2022-08-19T09:08:16;4.05;;;3.22;;
6374;SDS011;35400;45.472;-122.822;2022-08-19T09:10:52;4.25;;;3.05;;
6374;SDS011;35400;45.472;-122.822;2022-08-19T09:13:23;4.53;;;3.10;;
6374;SDS011;35400;45.472;-122.822;2022-08-19T09:16:17;3.30;;;3.00;;
6374;SDS011;35400;45.472;-122.822;2022-08-19T09:18:47;3.30;;;3.00;;
6374;SDS011;35400;45.472;-122.822;2022-08-19T09:21:19;5.25;;;2.83;;
6374;SDS011;35400;45.472;-122.822;2022-08-19T09:23:51;4.38;;;3.05;;
6374;SDS011;35400;45.472;-122.822;2022-08-19T09:26:19;3.78;;;2.90;;
6374;SDS011;35400;45.472;-122.822;2022-08-19T09:28:48;5.25;;;2.83;;
6374;SDS011;35400;45.472;-122.822;2022-08-19T09:31:22;2.72;;;2.53;;
6374;SDS011;35400;45.472;-122.822;2022-08-19T09:33:51;3.67;;;2.75;;
6374;SDS011;35400;45.472;-122.822;2022-08-19T09:36:22;3.28;;;2.78;;
6374;SDS011;35400;45.472;-122.822;2022-08-19T09:38:51;4.45;;;2.70;;
6374;SDS011;35400;45.472;-122.822;2022-08-19T09:41:24;2.85;;;2.20;;
6374;SDS011;35400;45.472;-122.822;2022-08-19T09:43:51;4.10;;;2.65;;
6374;SDS011;35400;45.472;-122.822;2022-08-19T09:46:21;3.53;;;2.38;;
6374;SDS011;35400;45.472;-122.822;2022-08-19T09:48:50;2.63;;;2.13;;
6374;SDS011;35400;45.472;-122.822;2022-08-19T09:51:18;5.50;;;2.60;;
6374;SDS011;35400;45.472;-122.822;2022-08-19T09:53:47;3.05;;;2.25;;
6374;SDS011;35400;45.472;-122.822;2022-08-19T09:56:19;3.60;;;2.60;;
6374;SDS011;35400;45.472;-122.822;2022-08-19T09:58:47;3.10;;;2.50;;
6374;SDS011;35400;45.472;-122.822;2022-08-19T10:01:21;2.65;;;2.25;;
6374;SDS011;35400;45.472;-122.822;2022-08-19T10:03:50;4.05;;;2.22;;
6374;SDS011;35400;45.472;-122.822;2022-08-19T10:06:19;3.13;;;2.20;;
6374;SDS011;35400;45.472;-122.822;2022-08-19T10:08:50;3.47;;;1.95;;
6374;SDS011;35400;45.472;-122.822;2022-08-19T10:11:17;2.53;;;2.33;;
6374;SDS011;35400;45.472;-122.822;2022-08-19T10:13:45;3.63;;;2.38;;
6374;SDS011;35400;45.472;-122.822;2022-08-19T10:16:13;2.50;;;2.30;;
6374;SDS011;35400;45.472;-122.822;2022-08-19T10:18:43;3.17;;;2.35;;
6374;SDS011;35400;45.472;-122.822;2022-08-19T10:23:39;2.03;;;1.83;;
6374;SDS011;35400;45.472;-122.822;2022-08-19T10:26:11;4.28;;;2.08;;
6374;SDS011;35400;45.472;-122.822;2022-08-19T10:28:39;5.30;;;2.30;;
6374;SDS011;35400;45.472;-122.822;2022-08-19T10:31:07;2.17;;;1.95;;
6374;SDS011;35400;45.472;-122.822;2022-08-19T10:33:36;3.35;;;1.85;;
6374;SDS011;35400;45.472;-122.822;2022-08-19T10:36:04;3.08;;;1.92;;
6374;SDS011;35400;45.472;-122.822;2022-08-19T10:38:33;3.17;;;2.25;;
6374;SDS011;35400;45.472;-122.822;2022-08-19T10:41:07;3.50;;;2.30;;
6374;SDS011;35400;45.472;-122.822;2022-08-19T10:43:38;2.23;;;1.60;;
6374;SDS011;35400;45.472;-122.822;2022-08-19T10:46:09;2.60;;;1.67;;
6374;SDS011;35400;45.472;-122.822;2022-08-19T10:48:37;1.43;;;1.33;;
6374;SDS011;35400;45.472;-122.822;2022-08-19T10:51:04;2.33;;;1.38;;
6374;SDS011;35400;45.472;-122.822;2022-08-19T10:53:49;1.58;;;1.48;;
6374;SDS011;35400;45.472;-122.822;2022-08-19T10:56:16;1.30;;;1.20;;
6374;SDS011;35400;45.472;-122.822;2022-08-19T10:59:02;1.58;;;1.42;;
6374;SDS011;35400;45.472;-122.822;2022-08-19T11:01:30;2.42;;;1.20;;
6374;SDS011;35400;45.472;-122.822;2022-08-19T11:03:59;1.58;;;1.20;;
6374;SDS011;35400;45.472;-122.822;2022-08-19T11:06:26;1.40;;;1.10;;
6374;SDS011;35400;45.472;-122.822;2022-08-19T11:08:53;1.60;;;1.38;;
6374;SDS011;35400;45.472;-122.822;2022-08-19T11:11:20;1.67;;;1.30;;
6374;SDS011;35400;45.472;-122.822;2022-08-19T11:13:48;2.53;;;1.33;;
6374;SDS011;35400;45.472;-122.822;2022-08-19T11:16:17;1.40;;;1.30;;
6374;SDS011;35400;45.472;-122.822;2022-08-19T11:18:51;1.83;;;1.00;;
6374;SDS011;35400;45.472;-122.822;2022-08-19T11:21:27;7.00;;;1.30;;
6374;SDS011;35400;45.472;-122.822;2022-08-19T11:23:57;1.10;;;1.00;;
6374;SDS011;35400;45.472;-122.822;2022-08-19T11:26:26;1.25;;;1.10;;
6374;SDS011;35400;45.472;-122.822;2022-08-19T11:28:52;2.20;;;1.43;;
6374;SDS011;35400;45.472;-122.822;2022-08-19T11:31:21;1.77;;;1.00;;
6374;SDS011;35400;45.472;-122.822;2022-08-19T11:33:50;1.90;;;1.23;;
6374;SDS011;35400;45.472;-122.822;2022-08-19T11:36:19;1.27;;;1.17;;
6374;SDS011;35400;45.472;-122.822;2022-08-19T11:38:47;1.43;;;1.20;;
6374;SDS011;35400;45.472;-122.822;2022-08-19T11:41:16;0.80;;;0.80;;
6374;SDS011;35400;45.472;-122.822;2022-08-19T11:43:44;1.33;;;1.23;;
6374;SDS011;35400;45.472;-122.822;2022-08-19T11:46:11;2.57;;;1.10;;
6374;SDS011;35400;45.472;-122.822;2022-08-19T11:48:39;0.70;;;0.70;;
6374;SDS011;35400;45.472;-122.822;2022-08-19T11:51:08;0.90;;;0.90;;
6374;SDS011;35400;45.472;-122.822;2022-08-19T11:53:37;1.00;;;1.00;;
6374;SDS011;35400;45.472;-122.822;2022-08-19T11:56:04;1.30;;;0.93;;
6374;SDS011;35400;45.472;-122.822;2022-08-19T11:58:32;2.83;;;1.03;;
6374;SDS011;35400;45.472;-122.822;2022-08-19T12:00:59;0.80;;;0.80;;
6374;SDS011;35400;45.472;-122.822;2022-08-19T12:03:25;1.30;;;0.97;;
6374;SDS011;35400;45.472;-122.822;2022-08-19T12:05:53;0.87;;;0.80;;
6374;SDS011;35400;45.472;-122.822;2022-08-19T12:08:20;1.00;;;0.90;;
6374;SDS011;35400;45.472;-122.822;2022-08-19T12:10:46;0.93;;;0.73;;
6374;SDS011;35400;45.472;-122.822;2022-08-19T12:13:13;1.97;;;0.87;;
6374;SDS011;35400;45.472;-122.822;2022-08-19T12:15:44;1.27;;;0.90;;
6374;SDS011;35400;45.472;-122.822;2022-08-19T12:18:12;0.70;;;0.70;;
6374;SDS011;35400;45.472;-122.822;2022-08-19T12:20:42;1.33;;;0.80;;
6374;SDS011;35400;45.472;-122.822;2022-08-19T12:23:09;0.80;;;0.80;;
6374;SDS011;35400;45.472;-122.822;2022-08-19T12:25:37;1.10;;;0.80;;
6374;SDS011;35400;45.472;-122.822;2022-08-19T12:28:13;0.77;;;0.77;;
6374;SDS011;35400;45.472;-122.822;2022-08-19T12:30:40;1.03;;;0.63;;
6374;SDS011;35400;45.472;-122.822;2022-08-19T12:33:07;0.60;;;0.60;;
6374;SDS011;35400;45.472;-122.822;2022-08-19T12:35:33;0.50;;;0.50;;
6374;SDS011;35400;45.472;-122.822;2022-08-19T12:38:00;0.60;;;0.60;;
6374;SDS011;35400;45.472;-122.822;2022-08-19T12:40:27;1.33;;;0.80;;
6374;SDS011;35400;45.472;-122.822;2022-08-19T12:42:54;0.80;;;0.60;;
6374;SDS011;35400;45.472;-122.822;2022-08-19T12:45:20;0.53;;;0.50;;
6374;SDS011;35400;45.472;-122.822;2022-08-19T12:47:48;0.40;;;0.40;;
6374;SDS011;35400;45.472;-122.822;2022-08-19T12:50:14;0.80;;;0.60;;
6374;SDS011;35400;45.472;-122.822;2022-08-19T12:52:41;0.50;;;0.50;;
6374;SDS011;35400;45.472;-122.822;2022-08-19T12:55:07;0.47;;;0.47;;
6374;SDS011;35400;45.472;-122.822;2022-08-19T12:57:34;0.50;;;0.50;;
6374;SDS011;35400;45.472;-122.822;2022-08-19T13:00:03;1.10;;;0.50;;
6374;SDS011;35400;45.472;-122.822;2022-08-19T13:02:37;0.70;;;0.63;;
6374;SDS011;35400;45.472;-122.822;2022-08-19T13:05:04;0.40;;;0.40;;
6374;SDS011;35400;45.472;-122.822;2022-08-19T13:07:33;0.53;;;0.40;;
6374;SDS011;35400;45.472;-122.822;2022-08-19T13:10:00;0.93;;;0.60;;
6374;SDS011;35400;45.472;-122.822;2022-08-19T13:12:26;0.53;;;0.40;;
6374;SDS011;35400;45.472;-122.822;2022-08-19T13:14:53;1.37;;;0.60;;
6374;SDS011;35400;45.472;-122.822;2022-08-19T13:17:21;0.63;;;0.63;;
6374;SDS011;35400;45.472;-122.822;2022-08-19T13:19:48;1.20;;;0.60;;
6374;SDS011;35400;45.472;-122.822;2022-08-19T13:22:15;0.50;;;0.50;;
6374;SDS011;35400;45.472;-122.822;2022-08-19T13:24:42;0.40;;;0.40;;
6374;SDS011;35400;45.472;-122.822;2022-08-19T13:27:08;0.60;;;0.60;;
6374;SDS011;35400;45.472;-122.822;2022-08-19T13:29:35;0.97;;;0.53;;
6374;SDS011;35400;45.472;-122.822;2022-08-19T13:32:19;0.40;;;0.40;;
6374;SDS011;35400;45.472;-122.822;2022-08-19T13:35:04;0.77;;;0.50;;
6374;SDS011;35400;45.472;-122.822;2022-08-19T13:37:30;1.83;;;0.67;;
6374;SDS011;35400;45.472;-122.822;2022-08-19T13:40:07;0.60;;;0.40;;
6374;SDS011;35400;45.472;-122.822;2022-08-19T13:42:44;1.00;;;0.50;;
6374;SDS011;35400;45.472;-122.822;2022-08-19T13:45:13;0.50;;;0.50;;
6374;SDS011;35400;45.472;-122.822;2022-08-19T13:47:41;0.30;;;0.30;;
6374;SDS011;35400;45.472;-122.822;2022-08-19T13:50:14;0.50;;;0.30;;
6374;SDS011;35400;45.472;-122.822;2022-08-19T13:52:43;1.20;;;0.40;;
6374;SDS011;35400;45.472;-122.822;2022-08-19T13:55:10;0.50;;;0.50;;
6374;SDS011;35400;45.472;-122.822;2022-08-19T13:57:37;0.40;;;0.40;;
6374;SDS011;35400;45.472;-122.822;2022-08-19T14:00:09;2.53;;;0.50;;
6374;SDS011;35400;45.472;-122.822;2022-08-19T14:02:42;0.50;;;0.40;;
6374;SDS011;35400;45.472;-122.822;2022-08-19T14:05:11;4.07;;;0.57;;
6374;SDS011;35400;45.472;-122.822;2022-08-19T14:07:40;0.50;;;0.50;;
6374;SDS011;35400;45.472;-122.822;2022-08-19T14:10:07;0.40;;;0.40;;
6374;SDS011;35400;45.472;-122.822;2022-08-19T14:12:36;1.70;;;0.57;;
6374;SDS011;35400;45.472;-122.822;2022-08-19T14:15:04;0.77;;;0.50;;
6374;SDS011;35400;45.472;-122.822;2022-08-19T14:17:32;0.50;;;0.50;;
6374;SDS011;35400;45.472;-122.822;2022-08-19T14:20:03;0.57;;;0.57;;
6374;SDS011;35400;45.472;-122.822;2022-08-19T14:22:37;1.33;;;0.50;;
6374;SDS011;35400;45.472;-122.822;2022-08-19T14:25:06;0.40;;;0.40;;
6374;SDS011;35400;45.472;-122.822;2022-08-19T14:27:35;0.40;;;0.40;;
6374;SDS011;35400;45.472;-122.822;2022-08-19T14:30:06;0.97;;;0.50;;
6374;SDS011;35400;45.472;-122.822;2022-08-19T14:32:34;0.30;;;0.30;;
6374;SDS011;35400;45.472;-122.822;2022-08-19T14:35:01;0.33;;;0.30;;
6374;SDS011;35400;45.472;-122.822;2022-08-19T14:37:28;0.40;;;0.40;;
6374;SDS011;35400;45.472;-122.822;2022-08-19T14:39:54;0.73;;;0.43;;
6374;SDS011;35400;45.472;-122.822;2022-08-19T14:42:21;0.73;;;0.40;;
6374;SDS011;35400;45.472;-122.822;2022-08-19T14:44:47;0.83;;;0.30;;